createdAt,value
2023-06-19T00:00:25.846Z,20.1
2023-06-19T00:02:56.789Z,20.1
2023-06-19T00:05:27.112Z,20
2023-06-19T00:07:58.372Z,20.1
2023-06-19T00:10:29.511Z,20
2023-06-19T00:13:00.017Z,20
2023-06-19T00:15:30.930Z,19.9
2023-06-19T00:18:01.340Z,19.9
2023-06-19T00:20:31.872Z,19.9
2023-06-19T00:23:02.745Z,19.9
2023-06-19T00:25:32.750Z,19.9
2023-06-19T00:28:03.132Z,19.9
2023-06-19T00:30:33.517Z,19.8
2023-06-19T00:33:04.298Z,19.8
2023-06-19T00:35:34.727Z,19.8
2023-06-19T00:38:05.772Z,19.8
2023-06-19T00:40:36.533Z,19.7
2023-06-19T00:43:07.738Z,19.8
2023-06-19T00:45:38.110Z,19.7
2023-06-19T00:48:08.857Z,19.6
2023-06-19T00:50:40.416Z,19.6
2023-06-19T00:53:09.920Z,19.6
2023-06-19T00:55:40.611Z,19.6
2023-06-19T00:58:12.682Z,19.6
2023-06-19T01:00:52.869Z,19.5
2023-06-19T01:03:18.742Z,19.5
2023-06-19T01:05:47.423Z,19.5
2023-06-19T01:08:18.177Z,19.4
2023-06-19T01:10:49.903Z,19.4
2023-06-19T01:13:21.196Z,19.4
2023-06-19T01:15:52.898Z,19.4
2023-06-19T01:18:23.799Z,19.3
2023-06-19T01:20:55.320Z,19.3
2023-06-19T01:23:25.866Z,19.3
2023-06-19T01:25:56.817Z,19.3
2023-06-19T01:28:27.376Z,19.3
2023-06-19T01:30:58.236Z,19.2
2023-06-19T01:33:29.156Z,19.2
2023-06-19T01:36:00.044Z,19.2
2023-06-19T01:38:31.199Z,19.2
2023-06-19T01:41:01.935Z,19.2
2023-06-19T01:43:32.656Z,19.2
2023-06-19T01:46:04.183Z,19.2
2023-06-19T01:48:35.864Z,19.2
2023-06-19T01:51:06.477Z,19.2
2023-06-19T01:53:37.185Z,19.1
2023-06-19T01:56:07.875Z,19.1
2023-06-19T01:58:41.341Z,19.1
2023-06-19T02:01:11.953Z,19.1
2023-06-19T02:03:44.792Z,19.1
2023-06-19T02:06:15.700Z,19.1
2023-06-19T02:08:46.775Z,19.1
2023-06-19T02:11:17.490Z,19.1
2023-06-19T02:13:48.988Z,19
2023-06-19T02:16:19.665Z,19
2023-06-19T02:18:50.188Z,19.1
2023-06-19T02:21:21.076Z,19.1
2023-06-19T02:23:52.132Z,19
2023-06-19T02:26:23.016Z,19
2023-06-19T02:28:53.765Z,18.9
2023-06-19T02:31:24.529Z,19
2023-06-19T02:33:54.631Z,18.9
2023-06-19T02:36:25.682Z,18.9
2023-06-19T02:38:56.489Z,18.9
2023-06-19T02:41:27.214Z,18.8
2023-06-19T02:43:58.241Z,18.8
2023-06-19T02:46:28.952Z,18.8
2023-06-19T02:48:59.544Z,18.8
2023-06-19T02:51:30.169Z,18.8
2023-06-19T02:54:01.220Z,18.8
2023-06-19T02:56:32.314Z,18.7
2023-06-19T02:59:03.647Z,18.7
2023-06-19T03:01:34.317Z,18.6
2023-06-19T03:04:05.904Z,18.6
2023-06-19T03:06:37.199Z,18.6
2023-06-19T03:09:07.825Z,18.6
2023-06-19T03:11:38.836Z,18.6
2023-06-19T03:14:11.108Z,18.6
2023-06-19T03:16:41.954Z,18.6
2023-06-19T03:19:13.336Z,18.6
2023-06-19T03:21:44.196Z,18.6
2023-06-19T03:24:15.097Z,18.6
2023-06-19T03:26:45.828Z,18.6
2023-06-19T03:29:16.298Z,18.6
2023-06-19T03:31:47.743Z,18.7
2023-06-19T03:34:19.890Z,18.7
2023-06-19T03:36:52.407Z,18.7
2023-06-19T03:39:23.126Z,18.7
2023-06-19T03:41:54.150Z,18.7
2023-06-19T03:44:24.660Z,18.7
2023-06-19T03:46:55.981Z,18.8
2023-06-19T03:49:26.847Z,18.8
2023-06-19T03:51:57.330Z,18.8
2023-06-19T03:54:28.503Z,18.8
2023-06-19T03:57:00.933Z,18.9
2023-06-19T03:59:32.688Z,18.9
2023-06-19T04:02:03.254Z,18.9
2023-06-19T04:04:33.771Z,18.9
2023-06-19T04:07:04.124Z,18.9
2023-06-19T04:09:33.355Z,19
2023-06-19T04:12:05.918Z,19
2023-06-19T04:14:36.829Z,19
2023-06-19T04:17:07.481Z,19.1
2023-06-19T04:19:38.211Z,19.1
2023-06-19T04:22:08.885Z,19.2
2023-06-19T04:24:40.005Z,19.3
2023-06-19T04:27:10.730Z,19.3
2023-06-19T04:29:42.299Z,19.3
2023-06-19T04:32:13.327Z,19.4
2023-06-19T04:34:44.192Z,19.5
2023-06-19T04:37:14.974Z,19.6
2023-06-19T04:39:46.066Z,19.7
2023-06-19T04:42:16.922Z,19.7
2023-06-19T04:44:46.421Z,19.8
2023-06-19T04:47:18.427Z,19.8
2023-06-19T04:49:49.528Z,19.9
2023-06-19T04:52:21.555Z,20
2023-06-19T04:54:52.083Z,20.1
2023-06-19T04:57:22.868Z,20.3
2023-06-19T04:59:53.948Z,20.4
2023-06-19T05:02:24.541Z,20.5
2023-06-19T05:04:55.233Z,20.6
2023-06-19T05:07:27.193Z,20.7
2023-06-19T05:09:58.733Z,20.8
2023-06-19T05:12:29.391Z,20.9
2023-06-19T05:15:00.324Z,20.9
2023-06-19T05:17:31.036Z,21
2023-06-19T05:20:02.604Z,21.1
2023-06-19T05:22:33.174Z,21.2
2023-06-19T05:25:03.825Z,21.3
2023-06-19T05:27:34.337Z,21.5
2023-06-19T05:30:05.071Z,21.6
2023-06-19T05:32:37.597Z,21.7
2023-06-19T05:35:08.599Z,21.8
2023-06-19T05:37:39.271Z,21.8
2023-06-19T05:40:10.188Z,21.9
2023-06-19T05:42:40.649Z,22
2023-06-19T05:45:11.183Z,22.1
2023-06-19T05:47:42.264Z,22.2
2023-06-19T05:50:13.383Z,22.2
2023-06-19T05:52:45.375Z,22.3
2023-06-19T05:55:16.667Z,22.5
2023-06-19T05:57:49.316Z,22.6
2023-06-19T06:00:20.046Z,22.6
2023-06-19T06:02:51.343Z,22.7
2023-06-19T06:05:21.702Z,22.8
2023-06-19T06:07:53.261Z,22.9
2023-06-19T06:10:24.626Z,23.1
2023-06-19T06:12:55.372Z,23.1
2023-06-19T06:15:25.976Z,23.2
2023-06-19T06:17:56.700Z,23.3
2023-06-19T06:20:27.383Z,23.5
2023-06-19T06:22:58.762Z,23.6
2023-06-19T06:25:29.881Z,23.8
2023-06-19T06:28:00.072Z,23.8
2023-06-19T06:30:30.674Z,24
2023-06-19T06:33:01.408Z,24.1
2023-06-19T06:35:32.492Z,24.2
2023-06-19T06:38:03.829Z,24.2
2023-06-19T06:40:34.709Z,24.4
2023-06-19T06:43:05.477Z,24.5
2023-06-19T06:45:36.462Z,24.6
2023-06-19T06:48:07.028Z,24.7
2023-06-19T06:50:38.220Z,24.9
2023-06-19T06:53:10.928Z,25
2023-06-19T06:55:41.729Z,25.2
2023-06-19T06:58:12.249Z,25.1
2023-06-19T07:00:43.105Z,25.3
2023-06-19T07:03:13.891Z,25.4
2023-06-19T07:05:44.375Z,25.4
2023-06-19T07:08:15.177Z,25.5
2023-06-19T07:10:45.810Z,25.7
2023-06-19T07:13:16.452Z,25.7
2023-06-19T07:15:47.660Z,25.8
2023-06-19T07:18:18.218Z,25.9
2023-06-19T07:20:48.584Z,26.1
2023-06-19T07:23:19.445Z,26.1
2023-06-19T07:25:50.253Z,26.2
2023-06-19T07:28:22.185Z,26.2
2023-06-19T07:30:55.985Z,26.3
2023-06-19T07:33:26.649Z,26.3
2023-06-19T07:36:00.324Z,26.3
2023-06-19T07:38:34.477Z,26.4
2023-06-19T07:41:06.422Z,26.5
2023-06-19T07:43:37.248Z,26.5
2023-06-19T07:46:08.167Z,26.6
2023-06-19T07:48:40.074Z,26.6
2023-06-19T07:51:10.824Z,26.6
2023-06-19T07:53:42.702Z,26.7
2023-06-19T07:56:13.612Z,26.8
2023-06-19T07:58:44.590Z,26.9
2023-06-19T08:01:16.581Z,27
2023-06-19T08:03:47.465Z,27
2023-06-19T08:06:18.086Z,27
2023-06-19T08:08:49.074Z,27.1
2023-06-19T08:11:20.493Z,27.2
2023-06-19T08:13:51.348Z,27.3
2023-06-19T08:16:24.929Z,27.4
2023-06-19T08:18:55.950Z,27.5
2023-06-19T08:21:26.523Z,27.6
2023-06-19T08:23:58.147Z,27.6
2023-06-19T08:26:28.722Z,27.7
2023-06-19T08:28:59.066Z,27.8
2023-06-19T08:31:29.767Z,27.8
2023-06-19T08:34:00.548Z,27.8
2023-06-19T08:36:31.461Z,27.9
2023-06-19T08:39:02.028Z,27.9
2023-06-19T08:41:34.729Z,28
2023-06-19T08:44:05.422Z,28.1
2023-06-19T08:46:36.020Z,28.1
2023-06-19T08:49:06.816Z,28.2
2023-06-19T08:51:37.866Z,28.2
2023-06-19T08:54:08.938Z,28.3
2023-06-19T08:56:39.121Z,28.3
2023-06-19T08:59:09.776Z,28.4
2023-06-19T09:01:40.089Z,28.5
2023-06-19T09:04:11.630Z,28.5
2023-06-19T09:06:42.884Z,28.5
2023-06-19T09:09:14.830Z,28.5
2023-06-19T09:11:45.556Z,28.5
2023-06-19T09:14:16.427Z,28.4
2023-06-19T09:16:47.216Z,28.5
2023-06-19T09:19:18.107Z,28.5
2023-06-19T09:21:48.975Z,28.5
2023-06-19T09:24:19.555Z,28.6
2023-06-19T09:26:50.177Z,28.6
2023-06-19T09:29:21.680Z,28.7
2023-06-19T09:31:52.552Z,28.7
2023-06-19T09:34:23.123Z,28.7
2023-06-19T09:36:54.107Z,28.8
2023-06-19T09:39:24.678Z,28.8
2023-06-19T09:41:55.323Z,28.8
2023-06-19T09:44:25.951Z,28.9
2023-06-19T09:46:56.516Z,28.9
2023-06-19T09:49:27.521Z,28.9
2023-06-19T09:51:58.046Z,29
2023-06-19T09:54:28.639Z,29.1
2023-06-19T09:56:59.597Z,29.2
2023-06-19T09:59:30.974Z,29.2
2023-06-19T10:02:01.606Z,29.2
2023-06-19T10:04:32.128Z,29.1
2023-06-19T10:07:03.244Z,29.2
2023-06-19T10:09:34.083Z,29.1
2023-06-19T10:12:04.957Z,29.1
2023-06-19T10:14:35.443Z,29.2
2023-06-19T10:17:06.771Z,29.2
2023-06-19T10:19:37.714Z,29.4
2023-06-19T10:22:08.437Z,29.4
2023-06-19T10:24:39.242Z,29.5
2023-06-19T10:27:09.903Z,29.6
2023-06-19T10:29:40.452Z,29.5
2023-06-19T10:32:11.149Z,29.5
2023-06-19T10:34:42.291Z,29.6
2023-06-19T10:37:12.994Z,29.6
2023-06-19T10:39:43.562Z,29.8
2023-06-19T10:42:14.283Z,29.8
2023-06-19T10:44:44.762Z,29.9
2023-06-19T10:47:15.539Z,29.8
2023-06-19T10:49:46.103Z,29.9
2023-06-19T10:52:17.019Z,29.9
2023-06-19T10:54:48.371Z,29.8
2023-06-19T10:57:19.681Z,29.9
2023-06-19T10:59:50.602Z,30
2023-06-19T11:02:23.264Z,30
2023-06-19T11:04:53.810Z,30
2023-06-19T11:07:24.156Z,30
2023-06-19T11:09:54.600Z,30
2023-06-19T11:12:24.923Z,30.1
2023-06-19T11:14:55.508Z,30
2023-06-19T11:17:26.206Z,30
2023-06-19T11:19:57.737Z,30.1
2023-06-19T11:22:28.447Z,30.1
2023-06-19T11:25:02.942Z,30
2023-06-19T11:27:34.845Z,30.1
2023-06-19T11:30:06.583Z,30.1
2023-06-19T11:32:38.612Z,30.3
2023-06-19T11:35:09.288Z,30.2
2023-06-19T11:37:39.965Z,30.2
2023-06-19T11:40:16.168Z,30.1
2023-06-19T11:42:46.423Z,30.1
2023-06-19T11:45:16.980Z,30
2023-06-19T11:47:47.743Z,30.1
2023-06-19T11:50:18.437Z,30
2023-06-19T11:52:49.119Z,30.2
2023-06-19T11:55:19.800Z,30.1
2023-06-19T11:57:50.673Z,30.2
2023-06-19T12:00:22.623Z,30.2
2023-06-19T12:02:53.046Z,30.4
2023-06-19T12:05:23.375Z,30.4
2023-06-19T12:07:54.081Z,30.3
2023-06-19T12:10:25.329Z,30.4
2023-06-19T12:12:57.448Z,30.4
2023-06-19T12:15:29.650Z,30.5
2023-06-19T12:18:00.387Z,30.5
2023-06-19T12:20:30.947Z,30.7
2023-06-19T12:23:01.599Z,30.8
2023-06-19T12:25:33.334Z,30.7
2023-06-19T12:28:03.734Z,30.9
2023-06-19T12:30:34.821Z,30.6
2023-06-19T12:33:05.344Z,30.6
2023-06-19T12:35:35.879Z,30.9
2023-06-19T12:38:07.665Z,30.9
2023-06-19T12:40:37.772Z,31.1
2023-06-19T12:43:08.459Z,31.1
2023-06-19T12:45:39.271Z,31.3
2023-06-19T12:48:10.583Z,31.3
2023-06-19T12:50:41.261Z,31.4
2023-06-19T12:53:11.802Z,31.5
2023-06-19T12:55:59.862Z,31.5
2023-06-19T12:58:15.708Z,31.2
2023-06-19T13:00:45.968Z,31
2023-06-19T13:03:17.076Z,31.2
2023-06-19T13:05:47.413Z,31.3
2023-06-19T13:08:18.642Z,30.9
2023-06-19T13:10:49.077Z,31
2023-06-19T13:13:20.144Z,31.1
2023-06-19T13:15:50.955Z,31.3
2023-06-19T13:18:21.860Z,31.5
2023-06-19T13:20:52.203Z,31.7
2023-06-19T13:23:22.853Z,31.7
2023-06-19T13:25:53.643Z,31.7
2023-06-19T13:28:26.060Z,31.8
2023-06-19T13:30:56.538Z,31.8
2023-06-19T13:33:30.951Z,31.9
2023-06-19T13:36:01.334Z,31.8
2023-06-19T13:38:32.083Z,32
2023-06-19T13:41:02.769Z,32.1
2023-06-19T13:43:33.288Z,32.4
2023-06-19T13:46:04.084Z,32.1
2023-06-19T13:48:34.701Z,32.3
2023-06-19T13:51:05.447Z,32.6
2023-06-19T13:53:36.651Z,32.4
2023-06-19T13:56:07.243Z,32.3
2023-06-19T13:58:38.215Z,32.4
2023-06-19T14:01:08.876Z,32.5
2023-06-19T14:03:39.310Z,32.5
2023-06-19T14:06:10.001Z,32.4
2023-06-19T14:08:41.006Z,32.2
2023-06-19T14:11:11.545Z,32.3
2023-06-19T14:13:42.059Z,32.4
2023-06-19T14:16:12.639Z,32.3
2023-06-19T14:18:43.348Z,32
2023-06-19T14:21:13.949Z,32
2023-06-19T14:23:44.628Z,31.9
2023-06-19T14:26:15.136Z,31.5
2023-06-19T14:28:46.587Z,31.3
2023-06-19T14:31:17.123Z,31.1
2023-06-19T14:33:47.688Z,30.9
2023-06-19T14:36:18.144Z,30.8
2023-06-19T14:38:52.041Z,30.6
2023-06-19T14:41:25.127Z,30.5
2023-06-19T14:43:55.423Z,30.6
2023-06-19T14:46:38.053Z,30.3
2023-06-19T14:48:56.232Z,30.3
2023-06-19T14:51:27.018Z,30.2
2023-06-19T14:53:57.845Z,30
2023-06-19T14:56:28.572Z,30
2023-06-19T14:58:59.088Z,29.9
2023-06-19T15:01:31.633Z,30
2023-06-19T15:04:02.390Z,30
2023-06-19T15:06:32.804Z,29.9
2023-06-19T15:09:04.956Z,29.7
2023-06-19T15:11:33.916Z,29.7
2023-06-19T15:14:04.242Z,29.7
2023-06-19T15:16:37.621Z,29.7
2023-06-19T15:19:05.820Z,29.5
2023-06-19T15:21:36.293Z,29.5
2023-06-19T15:24:06.936Z,29.4
2023-06-19T15:26:40.266Z,29.2
2023-06-19T15:29:10.515Z,29.4
2023-06-19T15:31:41.420Z,29.3
2023-06-19T15:34:12.259Z,29.4
2023-06-19T15:36:43.343Z,29.2
2023-06-19T15:39:14.283Z,29.4
2023-06-19T15:41:46.020Z,29.3
2023-06-19T15:44:17.089Z,29.4
2023-06-19T15:46:47.711Z,29.2
2023-06-19T15:49:20.003Z,29.2
2023-06-19T15:51:52.400Z,29.2
2023-06-19T15:54:23.056Z,29.1
2023-06-19T15:56:54.164Z,29
2023-06-19T15:59:25.722Z,29.2
2023-06-19T16:01:57.387Z,29.2
2023-06-19T16:04:27.872Z,29
2023-06-19T16:06:58.827Z,28.8
2023-06-19T16:09:39.855Z,28.7
2023-06-19T16:12:03.069Z,28.7
2023-06-19T16:14:33.978Z,28.8
2023-06-19T16:17:04.484Z,28.8
2023-06-19T16:19:36.609Z,28.7
2023-06-19T16:22:05.628Z,28.9
2023-06-19T16:24:36.247Z,28.8
2023-06-19T16:27:07.039Z,28.7
2023-06-19T16:29:37.625Z,28.7
2023-06-19T16:32:10.502Z,28.7
2023-06-19T16:34:39.989Z,28.8
2023-06-19T16:37:11.809Z,28.7
2023-06-19T16:39:42.257Z,28.7
2023-06-19T16:42:12.858Z,28.6
2023-06-19T16:44:43.393Z,28.4
2023-06-19T16:47:14.049Z,28.4
2023-06-19T16:49:44.628Z,28.4
2023-06-19T16:52:17.196Z,28.4
2023-06-19T16:54:49.560Z,28.5
2023-06-19T16:57:20.956Z,28.5
2023-06-19T16:59:51.585Z,28.6
2023-06-19T17:02:22.302Z,28.5
2023-06-19T17:04:54.210Z,28.6
2023-06-19T17:07:24.602Z,28.7
2023-06-19T17:09:56.683Z,28.5
2023-06-19T17:12:27.821Z,28.5
2023-06-19T17:14:58.181Z,28.4
2023-06-19T17:17:28.786Z,28.5
2023-06-19T17:20:00.682Z,28.5
2023-06-19T17:22:31.245Z,28.3
2023-06-19T17:25:00.560Z,28.3
2023-06-19T17:27:31.680Z,28.1
2023-06-19T17:30:02.309Z,28.2
2023-06-19T17:32:33.364Z,28.1
2023-06-19T17:35:04.667Z,28
2023-06-19T17:37:35.142Z,28
2023-06-19T17:40:06.074Z,27.9
2023-06-19T17:42:36.894Z,27.8
2023-06-19T17:45:07.473Z,27.8
2023-06-19T17:47:36.591Z,27.8
2023-06-19T17:50:07.060Z,27.7
2023-06-19T17:52:37.670Z,27.8
2023-06-19T17:55:08.527Z,27.7
2023-06-19T17:57:39.072Z,27.7
2023-06-19T18:00:10.127Z,27.6
2023-06-19T18:02:40.857Z,27.5
2023-06-19T18:05:11.689Z,27.5
2023-06-19T18:07:42.445Z,27.5
2023-06-19T18:10:14.942Z,27.5
2023-06-19T18:12:45.240Z,27.4
2023-06-19T18:15:16.252Z,27.4
2023-06-19T18:17:46.988Z,27.3
2023-06-19T18:20:17.426Z,27.2
2023-06-19T18:22:47.830Z,27.2
2023-06-19T18:25:18.274Z,27
2023-06-19T18:27:49.216Z,27.1
2023-06-19T18:30:21.498Z,26.9
2023-06-19T18:32:52.184Z,27
2023-06-19T18:35:23.302Z,27
2023-06-19T18:37:54.042Z,27
2023-06-19T18:40:25.493Z,26.8
2023-06-19T18:42:56.013Z,26.8
2023-06-19T18:45:26.397Z,26.8
2023-06-19T18:47:56.854Z,26.8
2023-06-19T18:50:27.786Z,26.7
2023-06-19T18:53:00.438Z,26.8
2023-06-19T18:55:30.612Z,26.7
2023-06-19T18:58:01.577Z,26.7
2023-06-19T19:00:33.200Z,26.5
2023-06-19T19:03:03.799Z,26.5
2023-06-19T19:05:34.390Z,26.4
2023-06-19T19:08:04.743Z,26.3
2023-06-19T19:10:35.838Z,26.3
2023-06-19T19:13:06.302Z,26.3
2023-06-19T19:15:38.542Z,26.2
2023-06-19T19:18:10.205Z,26.1
2023-06-19T19:20:40.735Z,26.1
2023-06-19T19:23:11.860Z,26.1
2023-06-19T19:25:42.822Z,26.1
2023-06-19T19:28:14.850Z,26
2023-06-19T19:30:47.214Z,26
2023-06-19T19:33:17.937Z,26
2023-06-19T19:35:48.352Z,25.9
2023-06-19T19:38:18.748Z,25.8
2023-06-19T19:40:49.333Z,25.6
2023-06-19T19:43:19.986Z,25.7
2023-06-19T19:45:50.645Z,25.7
2023-06-19T19:48:21.309Z,25.5
2023-06-19T19:50:52.084Z,25.3
2023-06-19T19:53:22.573Z,25.4
2023-06-19T19:55:52.635Z,25.3
2023-06-19T19:58:22.780Z,25.3
2023-06-19T20:00:53.165Z,25.3
2023-06-19T20:03:23.489Z,25.1
2023-06-19T20:05:53.993Z,25.1
2023-06-19T20:08:24.362Z,25
2023-06-19T20:10:54.825Z,24.9
2023-06-19T20:13:25.184Z,24.9
2023-06-19T20:15:55.648Z,24.7
2023-06-19T20:18:28.167Z,24.7
2023-06-19T20:21:00.096Z,24.7
2023-06-19T20:23:32.768Z,24.6
2023-06-19T20:26:03.340Z,24.6
2023-06-19T20:28:34.017Z,24.5
2023-06-19T20:31:05.029Z,24.5
2023-06-19T20:33:35.475Z,24.4
2023-06-19T20:36:10.848Z,24.3
2023-06-19T20:38:42.022Z,24.1
2023-06-19T20:41:13.372Z,24.2
2023-06-19T20:43:43.220Z,24.2
2023-06-19T20:46:14.448Z,24.1
2023-06-19T20:48:46.509Z,23.9
2023-06-19T20:51:18.051Z,23.9
2023-06-19T20:53:47.131Z,23.8
2023-06-19T20:56:19.607Z,23.8
2023-06-19T20:58:50.502Z,23.7
2023-06-19T21:01:19.541Z,23.6
2023-06-19T21:03:50.027Z,23.6
2023-06-19T21:06:20.555Z,23.7
2023-06-19T21:08:52.341Z,23.7
2023-06-19T21:11:24.647Z,23.5
2023-06-19T21:13:55.524Z,23.6
2023-06-19T21:16:26.169Z,23.5
2023-06-19T21:18:57.384Z,23.4
2023-06-19T21:21:28.824Z,23.4
2023-06-19T21:24:02.061Z,23.4
2023-06-19T21:26:34.174Z,23.5
2023-06-19T21:29:04.872Z,23.4
2023-06-19T21:31:35.360Z,23.3
2023-06-19T21:34:08.437Z,23.2
2023-06-19T21:36:38.950Z,23.2
2023-06-19T21:39:09.609Z,23.1
2023-06-19T21:41:40.128Z,23
2023-06-19T21:44:11.654Z,23.1
2023-06-19T21:46:42.833Z,23.2
2023-06-19T21:49:13.478Z,23
2023-06-19T21:51:44.043Z,23.2
2023-06-19T21:54:14.283Z,23.2
2023-06-19T21:56:44.664Z,23.1
2023-06-19T21:59:15.184Z,23
2023-06-19T22:01:45.823Z,22.9
2023-06-19T22:04:16.782Z,23
2023-06-19T22:06:47.218Z,22.8
2023-06-19T22:09:17.907Z,22.9
2023-06-19T22:11:49.891Z,22.8
2023-06-19T22:14:21.894Z,22.8
2023-06-19T22:16:52.359Z,22.6
2023-06-19T22:19:23.184Z,22.7
2023-06-19T22:21:54.072Z,22.6
2023-06-19T22:24:25.107Z,22.7
2023-06-19T22:26:55.863Z,22.6
2023-06-19T22:29:26.698Z,22.6
2023-06-19T22:31:57.532Z,22.5
2023-06-19T22:34:28.737Z,22.5
2023-06-19T22:37:00.319Z,22.5
2023-06-19T22:39:31.915Z,22.5
2023-06-19T22:42:02.535Z,22.5
2023-06-19T22:44:33.662Z,22.4
2023-06-19T22:47:04.072Z,22.5
2023-06-19T22:49:34.399Z,22.5
2023-06-19T22:52:04.963Z,22.4
2023-06-19T22:54:37.148Z,22.4
2023-06-19T22:57:12.308Z,22.6
2023-06-19T22:59:43.467Z,22.5
2023-06-19T23:02:15.120Z,22.4
2023-06-19T23:04:45.512Z,22.5
2023-06-19T23:07:16.129Z,22.3
2023-06-19T23:09:46.961Z,22.5
2023-06-19T23:12:18.106Z,22.5
2023-06-19T23:14:48.896Z,22.4
2023-06-19T23:17:19.491Z,22.3
2023-06-19T23:19:50.755Z,22.4
2023-06-19T23:22:21.753Z,22.2
2023-06-19T23:24:52.664Z,22.1
2023-06-19T23:27:23.262Z,22.1
2023-06-19T23:29:55.136Z,22
2023-06-19T23:32:25.961Z,22.1
2023-06-19T23:34:57.820Z,22
2023-06-19T23:37:28.612Z,22
2023-06-19T23:39:58.972Z,22.1
2023-06-19T23:42:29.890Z,21.9
2023-06-19T23:45:01.316Z,21.8
2023-06-19T23:47:31.711Z,21.9
2023-06-19T23:50:02.257Z,21.9
2023-06-19T23:52:42.562Z,21.9
2023-06-19T23:55:03.579Z,21.9
2023-06-19T23:57:34.201Z,21.9
